createdAt,value
2023-03-06T00:02:11.401Z,0.25
2023-03-06T00:07:13.007Z,0.36
2023-03-06T00:12:14.642Z,0.28
2023-03-06T00:17:16.275Z,0.25
2023-03-06T00:22:17.904Z,0.27
2023-03-06T00:27:20.119Z,0.25
2023-03-06T00:32:22.236Z,0.25
2023-03-06T00:37:25.677Z,0.26
2023-03-06T00:42:27.431Z,0.25
2023-03-06T00:47:29.017Z,0.29
2023-03-06T00:52:30.660Z,0.31
2023-03-06T00:57:32.267Z,0.25
2023-03-06T01:02:34.140Z,0.23
2023-03-06T01:07:36.998Z,0.28
2023-03-06T01:12:38.656Z,0.24
2023-03-06T01:17:40.254Z,0.26
2023-03-06T01:22:42.077Z,0.22
2023-03-06T01:27:43.788Z,0.24
2023-03-06T01:32:45.681Z,0.24
2023-03-06T01:37:47.612Z,0.20
2023-03-06T01:42:52.484Z,0.20
2023-03-06T01:47:54.223Z,0.18
2023-03-06T01:52:59.707Z,0.13
2023-03-06T01:58:08.983Z,0.08
2023-03-06T02:03:21.569Z,0.08
2023-03-06T02:08:24.031Z,0.06
2023-03-06T02:13:25.715Z,0.03
2023-03-06T02:18:28.518Z,-0.02
2023-03-06T02:23:55.135Z,-0.05
2023-03-06T02:28:59.212Z,-0.12
2023-03-06T02:34:13.858Z,-0.18
2023-03-06T02:39:18.144Z,-0.26
2023-03-06T02:44:21.326Z,-0.38
2023-03-06T02:49:24.397Z,-0.50
2023-03-06T02:54:27.825Z,-0.63
2023-03-06T02:59:29.527Z,-0.68
2023-03-06T03:04:32.644Z,-0.75
2023-03-06T03:09:36.982Z,-0.86
2023-03-06T03:14:39.098Z,-0.95
2023-03-06T03:19:40.854Z,-1.04
2023-03-06T03:24:42.652Z,-1.22
2023-03-06T03:29:45.112Z,-1.25
2023-03-06T03:34:47.010Z,-1.46
2023-03-06T03:39:48.721Z,-1.65
2023-03-06T03:44:50.616Z,-1.88
2023-03-06T03:49:55.293Z,-2.03
2023-03-06T03:54:57.871Z,-2.28
2023-03-06T04:00:00.395Z,-2.42
2023-03-06T04:05:16.184Z,-2.29
2023-03-06T04:10:18.030Z,-2.08
2023-03-06T04:15:19.828Z,-1.99
2023-03-06T04:20:22.506Z,-2.01
2023-03-06T04:25:24.775Z,-1.99
2023-03-06T04:30:26.682Z,-1.89
2023-03-06T04:35:28.719Z,-1.66
2023-03-06T04:40:38.013Z,-1.43
2023-03-06T04:45:39.795Z,-1.33
2023-03-06T04:50:41.819Z,-1.34
2023-03-06T04:55:43.424Z,-1.43
2023-03-06T05:00:45.057Z,-1.54
2023-03-06T05:05:46.783Z,-1.61
2023-03-06T05:10:55.638Z,-1.71
2023-03-06T05:16:02.767Z,-1.76
2023-03-06T05:21:05.889Z,-1.77
2023-03-06T05:26:13.103Z,-1.71
2023-03-06T05:31:14.718Z,-1.71
2023-03-06T05:36:16.350Z,-1.82
2023-03-06T05:41:18.005Z,-1.70
2023-03-06T05:46:19.620Z,-1.66
2023-03-06T05:51:21.401Z,-1.64
2023-03-06T05:56:23.075Z,-1.45
2023-03-06T06:01:25.422Z,-1.24
2023-03-06T06:06:27.297Z,-1.17
2023-03-06T06:11:29.099Z,-1.00
2023-03-06T06:16:31.137Z,-0.91
2023-03-06T06:21:32.971Z,-0.85
2023-03-06T06:26:34.785Z,-0.74
2023-03-06T06:31:37.389Z,-0.52
2023-03-06T06:36:39.576Z,-0.32
2023-03-06T06:41:59.368Z,-0.21
2023-03-06T06:47:24.091Z,-0.12
2023-03-06T06:52:26.552Z,0.05
2023-03-06T06:57:28.415Z,0.12
2023-03-06T07:02:30.352Z,0.14
2023-03-06T07:07:36.646Z,0.27
2023-03-06T07:12:38.684Z,0.31
2023-03-06T07:17:40.561Z,0.37
2023-03-06T07:22:50.809Z,0.49
2023-03-06T07:27:54.915Z,0.61
2023-03-06T07:32:58.038Z,0.65
2023-03-06T07:38:00.017Z,0.71
2023-03-06T07:43:18.449Z,0.76
2023-03-06T07:48:25.110Z,0.93
2023-03-06T07:53:27.393Z,0.95
2023-03-06T07:58:29.243Z,1.05
2023-03-06T08:03:31.294Z,1.16
2023-03-06T08:08:35.563Z,1.46
2023-03-06T08:13:38.349Z,1.72
2023-03-06T08:18:40.302Z,1.99
2023-03-06T08:23:42.769Z,1.88
2023-03-06T08:28:44.850Z,1.78
2023-03-06T08:33:47.156Z,1.74
2023-03-06T08:38:48.992Z,2.10
2023-03-06T08:43:51.516Z,2.15
2023-03-06T08:48:53.571Z,2.40
2023-03-06T08:53:56.680Z,2.48
2023-03-06T08:59:00.597Z,2.45
2023-03-06T09:04:06.491Z,2.20
2023-03-06T09:09:08.952Z,2.05
2023-03-06T09:14:10.762Z,2.21
2023-03-06T09:19:12.574Z,2.35
2023-03-06T09:24:16.465Z,2.41
2023-03-06T09:29:18.388Z,2.28
2023-03-06T09:34:20.470Z,2.30
2023-03-06T09:39:22.358Z,2.76
2023-03-06T09:44:30.464Z,2.86
2023-03-06T09:50:05.084Z,2.50
2023-03-06T09:55:24.162Z,2.34
2023-03-06T10:00:35.796Z,2.13
2023-03-06T10:05:58.441Z,2.09
2023-03-06T10:11:03.764Z,2.69
2023-03-06T10:16:14.572Z,2.79
2023-03-06T10:21:29.841Z,2.29
2023-03-06T10:26:40.079Z,2.28
2023-03-06T10:31:53.764Z,2.44
2023-03-06T10:36:58.748Z,2.70
2023-03-06T10:42:00.570Z,3.21
2023-03-06T10:47:30.109Z,2.67
2023-03-06T10:52:35.602Z,3.03
2023-03-06T10:57:37.388Z,2.49
2023-03-06T11:02:41.204Z,1.86
2023-03-06T11:07:55.380Z,1.65
2023-03-06T11:13:00.277Z,2.43
2023-03-06T11:18:08.147Z,3.33
2023-03-06T11:23:18.004Z,3.33
2023-03-06T11:28:38.325Z,3.20
2023-03-06T11:33:47.583Z,3.16
2023-03-06T11:38:52.033Z,2.96
2023-03-06T11:44:00.751Z,2.92
2023-03-06T11:49:27.664Z,2.78
2023-03-06T11:54:29.536Z,2.93
2023-03-06T11:59:43.403Z,3.52
2023-03-06T12:05:01.210Z,3.41
2023-03-06T12:10:29.961Z,3.06
2023-03-06T12:15:56.732Z,2.85
2023-03-06T12:21:10.785Z,3.79
2023-03-06T12:26:54.840Z,4.29
2023-03-06T12:32:27.403Z,3.90
2023-03-06T12:38:10.937Z,4.15
2023-03-06T12:43:46.730Z,6.16
2023-03-06T12:49:31.410Z,5.50
2023-03-06T12:54:41.167Z,4.61
2023-03-06T12:59:48.039Z,4.24
2023-03-06T13:05:20.760Z,4.41
2023-03-06T13:10:27.065Z,3.83
2023-03-06T13:15:39.290Z,3.64
2023-03-06T13:20:45.070Z,3.34
2023-03-06T13:25:48.930Z,2.71
2023-03-06T13:30:52.678Z,2.30
2023-03-06T13:35:56.809Z,2.32
2023-03-06T13:41:25.736Z,2.72
2023-03-06T13:46:37.149Z,2.83
2023-03-06T13:52:25.606Z,2.75
2023-03-06T13:57:43.654Z,2.46
2023-03-06T14:02:51.793Z,2.07
2023-03-06T14:08:11.142Z,2.60
2023-03-06T14:13:17.888Z,3.03
2023-03-06T14:18:26.895Z,3.07
2023-03-06T14:23:42.682Z,3.15
2023-03-06T14:28:53.609Z,3.49
2023-03-06T14:33:56.618Z,3.66
2023-03-06T14:39:07.877Z,3.54
2023-03-06T14:44:21.550Z,3.71
2023-03-06T14:49:26.989Z,3.33
2023-03-06T14:54:31.754Z,3.11
2023-03-06T14:59:41.757Z,3.26
2023-03-06T15:04:47.644Z,2.96
2023-03-06T15:09:51.930Z,2.83
2023-03-06T15:15:10.498Z,2.60
2023-03-06T15:20:42.384Z,2.55
2023-03-06T15:26:03.639Z,2.20
2023-03-06T15:31:21.100Z,2.03
2023-03-06T15:36:29.728Z,1.99
2023-03-06T15:41:37.330Z,1.91
2023-03-06T15:46:39.268Z,1.86
2023-03-06T15:51:41.129Z,1.17
2023-03-06T15:56:46.222Z,0.62
2023-03-06T16:01:48.929Z,0.46
2023-03-06T16:06:50.710Z,0.33
2023-03-06T16:11:52.565Z,0.26
2023-03-06T16:16:55.096Z,0.25
2023-03-06T16:21:57.194Z,0.31
2023-03-06T16:27:01.532Z,0.30
2023-03-06T16:32:04.527Z,0.32
2023-03-06T16:37:09.227Z,0.35
2023-03-06T16:42:11.486Z,0.37
2023-03-06T16:47:13.301Z,0.35
2023-03-06T16:52:15.259Z,0.39
2023-03-06T16:57:17.568Z,0.42
2023-03-06T17:02:19.381Z,0.34
2023-03-06T17:07:21.154Z,0.42
2023-03-06T17:12:23.080Z,0.37
2023-03-06T17:17:24.911Z,0.27
2023-03-06T17:22:27.445Z,0.27
2023-03-06T17:27:29.270Z,0.10
2023-03-06T17:32:32.384Z,-0.03
2023-03-06T17:37:34.427Z,-0.14
2023-03-06T17:42:36.299Z,-0.22
2023-03-06T17:47:38.270Z,-0.20
2023-03-06T17:52:40.086Z,-0.11
2023-03-06T17:57:41.931Z,-0.02
2023-03-06T18:02:45.395Z,0.10
2023-03-06T18:07:47.449Z,0.17
2023-03-06T18:12:49.391Z,0.29
2023-03-06T18:17:51.624Z,0.28
2023-03-06T18:22:53.512Z,0.24
2023-03-06T18:27:55.334Z,0.37
2023-03-06T18:32:57.231Z,0.50
2023-03-06T18:37:59.101Z,0.44
2023-03-06T18:43:00.950Z,0.27
2023-03-06T18:48:04.971Z,0.18
2023-03-06T18:53:06.798Z,0.27
2023-03-06T18:58:08.623Z,0.24
2023-03-06T19:03:11.421Z,0.18
2023-03-06T19:08:14.490Z,0.09
2023-03-06T19:13:16.327Z,0.04
2023-03-06T19:18:18.314Z,-0.01
2023-03-06T19:23:21.452Z,-0.04
2023-03-06T19:28:23.446Z,-0.06
2023-03-06T19:33:25.374Z,-0.04
2023-03-06T19:38:27.222Z,-0.02
2023-03-06T19:43:30.006Z,-0.10
2023-03-06T19:48:31.841Z,-0.13
2023-03-06T19:53:35.412Z,-0.18
2023-03-06T19:58:38.378Z,-0.28
2023-03-06T20:03:41.030Z,-0.26
2023-03-06T20:08:43.426Z,-0.17
2023-03-06T20:13:47.464Z,-0.15
2023-03-06T20:18:49.679Z,-0.20
2023-03-06T20:23:53.397Z,-0.31
2023-03-06T20:28:55.469Z,-0.40
2023-03-06T20:33:59.194Z,-0.45
2023-03-06T20:39:03.826Z,-0.52
2023-03-06T20:44:08.035Z,-0.51
2023-03-06T20:49:11.443Z,-0.38
2023-03-06T20:54:15.449Z,-0.34
2023-03-06T20:59:18.529Z,-0.35
2023-03-06T21:04:20.442Z,-0.32
2023-03-06T21:09:22.317Z,-0.35
2023-03-06T21:14:24.098Z,-0.19
2023-03-06T21:19:27.407Z,-0.06
2023-03-06T21:24:29.261Z,0.07
2023-03-06T21:29:31.391Z,0.06
2023-03-06T21:34:33.336Z,0.09
2023-03-06T21:39:35.142Z,0.04
2023-03-06T21:44:36.946Z,0.09
2023-03-06T21:49:38.779Z,0.03
2023-03-06T21:54:41.422Z,-0.21
2023-03-06T21:59:43.247Z,-0.23
2023-03-06T22:04:50.065Z,-0.23
2023-03-06T22:09:53.320Z,-0.17
2023-03-06T22:14:55.138Z,-0.20
2023-03-06T22:19:57.051Z,-0.06
2023-03-06T22:24:58.887Z,-0.05
2023-03-06T22:30:00.719Z,-0.12
2023-03-06T22:35:02.683Z,-0.13
2023-03-06T22:40:04.885Z,-0.10
2023-03-06T22:45:07.278Z,-0.11
2023-03-06T22:50:10.159Z,-0.11
2023-03-06T22:55:12.004Z,-0.01
2023-03-06T23:00:14.726Z,-0.04
2023-03-06T23:05:16.615Z,-0.03
2023-03-06T23:10:19.896Z,-0.01
2023-03-06T23:15:40.208Z,0.01
2023-03-06T23:21:00.584Z,0.06
2023-03-06T23:26:24.157Z,-0.01
2023-03-06T23:31:29.260Z,-0.05
2023-03-06T23:36:31.280Z,-0.05
2023-03-06T23:41:33.137Z,-0.11
2023-03-06T23:46:35.149Z,0.04
2023-03-06T23:51:37.308Z,0.13
2023-03-06T23:56:39.641Z,0.18
